Portada
METAR-TAF:

METAR-TAF

Aeroports :

Jizan, Aràbia Saudita

latitud: 16-54N, longitud: 042-35E, altitud: 6 m

Observació

L'informe es va fer fa 51 minuts, a les 18:00 UTC
Vent 4 kt del Sud
Temperatura 26°C
Humitat 74%
Pressió 1015 hPa
Visibilitat: 8000 m

METAR: OEGN 241800Z 17004KT 8000 NSC 26/21 Q1015 NOSIG

Hora: 21:51 (18:51 UTC)

Pronòstic

L'informe es va fer fa 7 hores i 51 minuts, a les 11:00 UTC
Pronòstic vàlid del 24 a les 12 UTC al 25 a les 18 UTC
Vent 12 kt del Sud-Oest
Visibilitat: 7000 m
Escasses núvols a una alçada de 3000 ft
Temporalment
l' 24 a les 12 UTC al 24 a les 16 UTC
Núvols disperses a una alçada de 3000 ft
Evolucionant progressivament
l' 24 a les 18 UTC al 24 a les 20 UTC
Vent 6 kt del Sud-Est
Probabilitat 40% :
Temporalment
l' 25 a les 00 UTC al 25 a les 05 UTC
Visibilitat: 4000 m
calitja

TAF: OEGN 241100Z 2412/2518 22012KT 7000 FEW030 TEMPO 2412/2416 SCT030 BECMG 2418/2420 14006KT PROB40 TEMPO 2500/2505 4000 HZ

Observacions i pronòstics meteorològics de més de 4000 aeroports (METAR i TAF).

Les estacions disponibles són els punts grocs i vermells al mapa.

Posi el ratolí al punt desitjat per veure el nom de l'estació.

Feu clic per veure les observacions i els pronòstics meteorològics.

Per canviar el mapa: feu clic els botons verds amb una creu de color negre per apropar; al botó verd amb un guió per allunyar la imatge; o en les fletxes verdes per a mapes adjacents.


METAR-TAF: